createdAt,value
2023-05-22T00:00:02.303Z,15.17
2023-05-22T00:02:43.409Z,15.12
2023-05-22T00:05:13.129Z,15.13
2023-05-22T00:07:43.647Z,15.10
2023-05-22T00:10:12.494Z,15.08
2023-05-22T00:12:42.275Z,15.08
2023-05-22T00:15:12.792Z,15.07
2023-05-22T00:17:42.329Z,15.08
2023-05-22T00:20:11.587Z,15.07
2023-05-22T00:22:40.003Z,15.07
2023-05-22T00:25:09.691Z,14.99
2023-05-22T00:27:39.149Z,15.08
2023-05-22T00:30:10.311Z,15.07
2023-05-22T00:32:38.896Z,15.04
2023-05-22T00:35:08.485Z,15.04
2023-05-22T00:37:36.855Z,15.01
2023-05-22T00:40:06.249Z,14.97
2023-05-22T00:42:34.740Z,14.99
2023-05-22T00:45:03.198Z,15.04
2023-05-22T00:47:33.049Z,15.05
2023-05-22T00:50:01.951Z,15.03
2023-05-22T00:52:31.523Z,15.06
2023-05-22T00:55:00.870Z,15.07
2023-05-22T00:57:29.542Z,14.99
2023-05-22T00:59:58.899Z,14.97
2023-05-22T01:02:33.039Z,15.02
2023-05-22T01:05:04.413Z,15.08
2023-05-22T01:07:33.401Z,15.09
2023-05-22T01:10:01.782Z,15.09
2023-05-22T01:12:39.890Z,15.05
2023-05-22T01:15:17.627Z,14.57
2023-05-22T01:17:57.747Z,15.01
2023-05-22T01:20:33.470Z,15.01
2023-05-22T01:23:34.358Z,15.01
2023-05-22T01:26:20.761Z,15.01
2023-05-22T01:29:14.204Z,15.01
2023-05-22T01:31:47.258Z,15.02
2023-05-22T01:34:17.718Z,15.07
2023-05-22T01:36:48.061Z,15.03
2023-05-22T01:39:17.536Z,15.13
2023-05-22T01:41:47.483Z,15.13
2023-05-22T01:44:16.599Z,15.10
2023-05-22T01:46:46.830Z,15.09
2023-05-22T01:49:15.604Z,14.99
2023-05-22T01:51:53.446Z,15.10
2023-05-22T01:54:28.320Z,15.08
2023-05-22T01:57:00.669Z,15.10
2023-05-22T01:59:35.889Z,15.12
2023-05-22T02:02:09.231Z,15.13
2023-05-22T02:04:40.619Z,15.05
2023-05-22T02:07:12.326Z,15.15
2023-05-22T02:09:43.520Z,15.15
2023-05-22T02:12:14.342Z,15.14
2023-05-22T02:14:43.940Z,15.03
2023-05-22T02:17:13.991Z,15.13
2023-05-22T02:19:44.070Z,15.11
2023-05-22T02:22:13.954Z,15.08
2023-05-22T02:24:44.698Z,15.04
2023-05-22T02:27:13.214Z,15.06
2023-05-22T02:29:41.922Z,15.09
2023-05-22T02:32:11.259Z,15.06
2023-05-22T02:34:41.138Z,14.99
2023-05-22T02:37:09.584Z,15.09
2023-05-22T02:39:37.940Z,15.08
2023-05-22T02:42:07.734Z,15.04
2023-05-22T02:44:36.365Z,14.98
2023-05-22T02:47:06.333Z,14.92
2023-05-22T02:49:34.844Z,14.89
2023-05-22T02:52:04.810Z,14.90
2023-05-22T02:54:33.172Z,14.87
2023-05-22T02:57:02.984Z,14.88
2023-05-22T02:59:31.761Z,14.83
2023-05-22T03:02:00.431Z,14.74
2023-05-22T03:04:29.716Z,14.73
2023-05-22T03:06:58.155Z,14.68
2023-05-22T03:09:28.432Z,14.68
2023-05-22T03:11:56.882Z,14.65
2023-05-22T03:14:25.310Z,14.61
2023-05-22T03:16:54.877Z,14.62
2023-05-22T03:19:24.912Z,14.63
2023-05-22T03:21:53.947Z,14.60
2023-05-22T03:24:23.628Z,14.56
2023-05-22T03:26:53.527Z,14.55
2023-05-22T03:29:30.752Z,14.50
2023-05-22T03:32:00.086Z,14.48
2023-05-22T03:34:30.106Z,14.46
2023-05-22T03:36:58.678Z,14.45
2023-05-22T03:39:27.135Z,14.44
2023-05-22T03:42:08.321Z,14.38
2023-05-22T03:44:36.939Z,14.35
2023-05-22T03:47:05.832Z,14.33
2023-05-22T03:49:34.264Z,14.22
2023-05-22T03:52:04.179Z,14.27
2023-05-22T03:54:32.669Z,14.28
2023-05-22T03:57:01.227Z,14.31
2023-05-22T03:59:32.091Z,14.34
2023-05-22T04:02:03.766Z,14.33
2023-05-22T04:04:32.493Z,14.30
2023-05-22T04:07:02.830Z,14.30
2023-05-22T04:09:34.507Z,14.30
2023-05-22T04:12:03.714Z,14.31
2023-05-22T04:14:33.935Z,14.33
2023-05-22T04:17:02.430Z,14.30
2023-05-22T04:19:30.947Z,14.32
2023-05-22T04:21:59.767Z,14.34
2023-05-22T04:24:28.070Z,14.37
2023-05-22T04:27:00.168Z,14.38
2023-05-22T04:29:29.261Z,14.39
2023-05-22T04:32:00.317Z,14.42
2023-05-22T04:34:30.352Z,14.40
2023-05-22T04:37:00.208Z,14.39
2023-05-22T04:39:28.674Z,14.40
2023-05-22T04:42:05.849Z,14.44
2023-05-22T04:44:35.511Z,14.45
2023-05-22T04:47:08.190Z,14.50
2023-05-22T04:49:36.910Z,14.49
2023-05-22T04:52:07.390Z,14.52
2023-05-22T04:54:36.319Z,14.53
2023-05-22T04:57:05.278Z,14.54
2023-05-22T04:59:38.117Z,14.57
2023-05-22T05:02:08.562Z,14.65
2023-05-22T05:04:37.628Z,14.68
2023-05-22T05:07:07.304Z,14.70
2023-05-22T05:09:35.868Z,14.74
2023-05-22T05:12:04.795Z,14.79
2023-05-22T05:14:33.185Z,14.87
2023-05-22T05:17:02.593Z,14.94
2023-05-22T05:19:34.163Z,14.99
2023-05-22T05:22:04.706Z,15.03
2023-05-22T05:24:33.723Z,15.09
2023-05-22T05:27:02.234Z,15.16
2023-05-22T05:29:31.346Z,15.24
2023-05-22T05:32:06.778Z,15.30
2023-05-22T05:34:48.213Z,15.30
2023-05-22T05:37:35.137Z,15.35
2023-05-22T05:40:07.725Z,15.35
2023-05-22T05:42:37.969Z,15.49
2023-05-22T05:45:08.113Z,15.57
2023-05-22T05:47:36.590Z,15.67
2023-05-22T05:50:07.433Z,15.77
2023-05-22T05:52:37.164Z,15.89
2023-05-22T05:55:12.539Z,16.01
2023-05-22T05:57:41.900Z,16.00
2023-05-22T06:00:15.570Z,16.01
2023-05-22T06:02:44.067Z,16.03
2023-05-22T06:05:47.612Z,16.01
2023-05-22T06:08:43.537Z,15.96
2023-05-22T06:11:12.314Z,15.99
2023-05-22T06:13:51.773Z,15.98
2023-05-22T06:16:20.526Z,15.99
2023-05-22T06:18:49.745Z,15.99
2023-05-22T06:21:21.210Z,16.01
2023-05-22T06:23:51.026Z,16.00
2023-05-22T06:26:20.271Z,16.01
2023-05-22T06:28:51.904Z,16.07
2023-05-22T06:31:24.642Z,16.16
2023-05-22T06:33:56.284Z,16.23
2023-05-22T06:36:27.552Z,16.36
2023-05-22T06:38:57.044Z,16.49
2023-05-22T06:41:43.935Z,16.60
2023-05-22T06:44:14.788Z,16.76
2023-05-22T06:46:43.201Z,16.92
2023-05-22T06:49:18.752Z,17.12
2023-05-22T06:51:52.253Z,17.44
2023-05-22T06:54:21.594Z,17.70
2023-05-22T06:56:53.882Z,18.01
2023-05-22T06:59:22.823Z,18.51
2023-05-22T07:02:06.887Z,19.19
2023-05-22T07:04:56.325Z,19.85
2023-05-22T07:07:33.817Z,20.15
2023-05-22T07:10:02.524Z,20.52
2023-05-22T07:12:33.825Z,20.83
2023-05-22T07:15:03.522Z,21.19
2023-05-22T07:17:33.178Z,21.58
2023-05-22T07:20:01.879Z,21.84
2023-05-22T07:22:31.268Z,21.71
2023-05-22T07:25:01.262Z,21.54
2023-05-22T07:27:33.511Z,21.36
2023-05-22T07:30:03.397Z,21.20
2023-05-22T07:32:33.506Z,21.12
2023-05-22T07:35:04.991Z,21.04
2023-05-22T07:37:36.102Z,20.98
2023-05-22T07:40:07.726Z,20.88
2023-05-22T07:42:36.557Z,20.84
2023-05-22T07:45:06.638Z,20.80
2023-05-22T07:47:35.278Z,20.71
2023-05-22T07:50:04.592Z,20.72
2023-05-22T07:52:36.033Z,20.68
2023-05-22T07:55:08.737Z,20.68
2023-05-22T07:57:40.120Z,20.63
2023-05-22T08:00:18.716Z,20.58
2023-05-22T08:02:47.500Z,20.56
2023-05-22T08:05:16.192Z,20.51
2023-05-22T08:07:44.853Z,20.49
2023-05-22T08:10:18.246Z,20.47
2023-05-22T08:12:47.058Z,20.44
2023-05-22T08:15:15.660Z,20.52
2023-05-22T08:17:44.292Z,20.61
2023-05-22T08:20:13.786Z,20.66
2023-05-22T08:22:42.634Z,20.77
2023-05-22T08:25:11.384Z,20.82
2023-05-22T08:27:41.337Z,20.91
2023-05-22T08:30:10.356Z,21.04
2023-05-22T08:32:39.580Z,21.16
2023-05-22T08:35:08.746Z,21.09
2023-05-22T08:37:37.328Z,21.09
2023-05-22T08:40:07.150Z,21.20
2023-05-22T08:42:35.677Z,21.26
2023-05-22T08:45:07.224Z,21.29
2023-05-22T08:47:37.315Z,21.16
2023-05-22T08:50:07.430Z,21.35
2023-05-22T08:52:44.281Z,21.43
2023-05-22T08:55:13.311Z,21.42
2023-05-22T08:57:42.237Z,21.35
2023-05-22T09:00:13.629Z,21.34
2023-05-22T09:02:43.049Z,21.41
2023-05-22T09:05:11.776Z,21.52
2023-05-22T09:07:41.052Z,21.68
2023-05-22T09:10:09.905Z,21.79
2023-05-22T09:12:38.931Z,21.87
2023-05-22T09:15:13.779Z,22.02
2023-05-22T09:17:42.638Z,22.15
2023-05-22T09:20:15.899Z,22.32
2023-05-22T09:22:44.572Z,22.56
2023-05-22T09:25:19.733Z,22.71
2023-05-22T09:27:48.420Z,22.76
2023-05-22T09:30:19.552Z,23.01
2023-05-22T09:32:50.186Z,23.16
2023-05-22T09:35:20.347Z,23.32
2023-05-22T09:37:51.922Z,23.39
2023-05-22T09:40:20.314Z,23.34
2023-05-22T09:42:48.718Z,23.26
2023-05-22T09:45:22.917Z,23.35
2023-05-22T09:47:51.879Z,23.39
2023-05-22T09:50:20.775Z,23.37
2023-05-22T09:52:52.240Z,23.33
2023-05-22T09:55:22.971Z,23.49
2023-05-22T09:57:53.741Z,23.60
2023-05-22T10:00:25.478Z,23.81
2023-05-22T10:03:03.730Z,23.91
2023-05-22T10:05:34.145Z,24.01
2023-05-22T10:08:10.387Z,24.01
2023-05-22T10:10:40.408Z,24.05
2023-05-22T10:13:09.352Z,24.18
2023-05-22T10:15:39.800Z,24.35
2023-05-22T10:18:08.563Z,24.51
2023-05-22T10:20:38.344Z,24.61
2023-05-22T10:23:08.339Z,24.78
2023-05-22T10:25:37.264Z,24.91
2023-05-22T10:28:06.704Z,25.00
2023-05-22T10:30:43.956Z,25.12
2023-05-22T10:33:46.224Z,25.18
2023-05-22T10:36:21.576Z,25.12
2023-05-22T10:39:15.571Z,25.40
2023-05-22T10:41:47.812Z,25.56
2023-05-22T10:44:16.596Z,25.60
2023-05-22T10:46:51.369Z,25.38
2023-05-22T10:49:23.992Z,25.72
2023-05-22T10:51:57.738Z,25.76
2023-05-22T10:54:41.566Z,25.74
2023-05-22T10:57:16.169Z,25.81
2023-05-22T10:59:44.759Z,25.88
2023-05-22T11:02:29.546Z,25.98
2023-05-22T11:05:36.667Z,26.01
2023-05-22T11:08:36.026Z,26.11
2023-05-22T11:11:14.627Z,26.22
2023-05-22T11:13:43.844Z,26.29
2023-05-22T11:16:22.738Z,26.34
2023-05-22T11:19:21.165Z,26.27
2023-05-22T11:21:51.347Z,26.42
2023-05-22T11:24:20.229Z,26.18
2023-05-22T11:27:03.707Z,26.17
2023-05-22T11:29:32.409Z,26.26
2023-05-22T11:32:01.183Z,26.30
2023-05-22T11:34:31.164Z,26.40
2023-05-22T11:37:00.707Z,26.49
2023-05-22T11:39:29.349Z,26.66
2023-05-22T11:41:58.013Z,26.71
2023-05-22T11:44:29.562Z,26.82
2023-05-22T11:46:58.066Z,26.87
2023-05-22T11:49:26.836Z,26.97
2023-05-22T11:51:56.638Z,27.09
2023-05-22T11:54:25.089Z,27.17
2023-05-22T11:56:54.030Z,27.21
2023-05-22T11:59:25.031Z,27.27
2023-05-22T12:01:53.837Z,27.30
2023-05-22T12:04:25.723Z,27.36
2023-05-22T12:06:55.074Z,27.36
2023-05-22T12:09:25.603Z,27.46
2023-05-22T12:11:56.647Z,27.58
2023-05-22T12:14:28.331Z,27.62
2023-05-22T12:16:57.074Z,27.66
2023-05-22T12:19:27.149Z,27.77
2023-05-22T12:21:55.973Z,27.81
2023-05-22T12:24:26.141Z,27.83
2023-05-22T12:26:54.948Z,27.99
2023-05-22T12:29:25.028Z,28.06
2023-05-22T12:31:53.554Z,28.11
2023-05-22T12:34:24.521Z,28.11
2023-05-22T12:36:53.051Z,28.05
2023-05-22T12:39:22.488Z,28.04
2023-05-22T12:41:52.537Z,28.09
2023-05-22T12:44:28.456Z,28.12
2023-05-22T12:46:56.904Z,28.17
2023-05-22T12:49:26.455Z,28.25
2023-05-22T12:51:54.984Z,28.33
2023-05-22T12:54:26.574Z,28.30
2023-05-22T12:56:58.785Z,28.29
2023-05-22T12:59:28.478Z,28.31
2023-05-22T13:02:02.210Z,28.34
2023-05-22T13:04:46.576Z,28.37
2023-05-22T13:07:21.421Z,28.41
2023-05-22T13:09:50.939Z,28.48
2023-05-22T13:12:20.873Z,28.51
2023-05-22T13:14:49.943Z,28.41
2023-05-22T13:17:19.991Z,28.24
2023-05-22T13:19:48.333Z,28.02
2023-05-22T13:22:16.930Z,27.94
2023-05-22T13:24:46.333Z,27.72
2023-05-22T13:27:14.865Z,27.99
2023-05-22T13:29:45.247Z,28.02
2023-05-22T13:32:14.492Z,28.02
2023-05-22T13:34:43.598Z,27.96
2023-05-22T13:37:13.427Z,27.91
2023-05-22T13:39:42.037Z,28.11
2023-05-22T13:42:12.504Z,28.16
2023-05-22T13:44:40.877Z,28.29
2023-05-22T13:47:10.902Z,28.29
2023-05-22T13:49:40.496Z,28.38
2023-05-22T13:52:09.008Z,28.39
2023-05-22T13:54:37.530Z,28.43
2023-05-22T13:57:06.190Z,28.53
2023-05-22T13:59:34.919Z,28.54
2023-05-22T14:02:03.592Z,28.61
2023-05-22T14:04:33.469Z,28.63
2023-05-22T14:07:02.342Z,28.71
2023-05-22T14:09:31.479Z,28.78
2023-05-22T14:12:00.001Z,28.77
2023-05-22T14:14:31.470Z,28.80
2023-05-22T14:17:00.279Z,28.71
2023-05-22T14:19:28.944Z,28.75
2023-05-22T14:21:58.750Z,28.75
2023-05-22T14:24:27.426Z,28.78
2023-05-22T14:26:58.233Z,28.83
2023-05-22T14:29:27.994Z,28.87
2023-05-22T14:32:03.145Z,28.85
2023-05-22T14:34:32.228Z,28.82
2023-05-22T14:37:02.086Z,28.67
2023-05-22T14:39:31.798Z,28.45
2023-05-22T14:42:01.211Z,28.24
2023-05-22T14:44:29.947Z,27.93
2023-05-22T14:46:58.314Z,27.66
2023-05-22T14:49:30.121Z,27.40
2023-05-22T14:51:58.540Z,27.18
2023-05-22T14:54:29.021Z,26.92
2023-05-22T14:56:57.566Z,26.63
2023-05-22T14:59:26.769Z,26.33
2023-05-22T15:01:55.426Z,26.07
2023-05-22T15:04:25.513Z,25.76
2023-05-22T15:06:54.409Z,25.54
2023-05-22T15:09:23.081Z,25.30
2023-05-22T15:11:53.142Z,24.79
2023-05-22T15:14:22.028Z,24.05
2023-05-22T15:16:50.567Z,23.32
2023-05-22T15:19:19.490Z,22.74
2023-05-22T15:21:48.089Z,22.27
2023-05-22T15:24:17.151Z,22.00
2023-05-22T15:26:45.792Z,21.78
2023-05-22T15:29:15.859Z,21.65
2023-05-22T15:31:44.513Z,21.39
2023-05-22T15:34:13.289Z,21.27
2023-05-22T15:36:41.738Z,21.17
2023-05-22T15:39:10.176Z,21.10
2023-05-22T15:44:20.403Z,21.15
2023-05-22T15:46:49.293Z,20.61
2023-05-22T15:54:00.437Z,20.88
2023-05-22T15:56:29.212Z,20.91
2023-05-22T15:58:58.083Z,20.95
2023-05-22T16:01:30.006Z,20.99
2023-05-22T16:04:01.412Z,21.01
2023-05-22T16:06:30.202Z,20.44
2023-05-22T16:08:58.837Z,20.86
2023-05-22T16:11:27.548Z,20.80
2023-05-22T16:13:57.213Z,20.77
2023-05-22T16:16:25.876Z,20.77
2023-05-22T16:18:56.103Z,20.59
2023-05-22T16:21:24.824Z,20.70
2023-05-22T16:23:55.628Z,20.63
2023-05-22T16:26:24.654Z,20.56
2023-05-22T16:28:53.370Z,19.73
2023-05-22T16:31:22.047Z,20.46
2023-05-22T16:33:50.726Z,20.04
2023-05-22T16:36:21.169Z,20.32
2023-05-22T16:38:49.826Z,19.90
2023-05-22T16:41:18.445Z,20.06
2023-05-22T16:43:47.135Z,20.05
2023-05-22T16:46:15.865Z,20.01
2023-05-22T16:48:44.504Z,19.57
2023-05-22T16:51:14.264Z,19.90
2023-05-22T16:53:44.377Z,19.87
2023-05-22T16:56:12.901Z,19.77
2023-05-22T16:58:41.589Z,19.59
2023-05-22T17:01:10.449Z,19.46
2023-05-22T17:03:39.701Z,19.41
2023-05-22T17:06:09.081Z,19.41
2023-05-22T17:08:37.767Z,19.39
2023-05-22T17:11:08.829Z,19.40
2023-05-22T17:13:37.347Z,19.38
2023-05-22T17:16:07.477Z,19.42
2023-05-22T17:18:36.867Z,19.00
2023-05-22T17:21:09.377Z,19.25
2023-05-22T17:23:38.974Z,19.20
2023-05-22T17:26:09.161Z,19.20
2023-05-22T17:28:37.941Z,19.19
2023-05-22T17:31:06.518Z,19.17
2023-05-22T17:33:35.444Z,18.79
2023-05-22T17:36:04.145Z,19.17
2023-05-22T17:38:32.828Z,19.12
2023-05-22T17:41:01.521Z,19.11
2023-05-22T17:48:09.299Z,18.30
2023-05-22T17:50:38.078Z,18.99
2023-05-22T17:53:06.719Z,18.48
2023-05-22T17:55:35.357Z,19.05
2023-05-22T17:58:04.219Z,19.05
2023-05-22T18:00:32.859Z,18.96
2023-05-22T18:03:01.534Z,18.82
2023-05-22T18:05:31.734Z,18.73
2023-05-22T18:08:00.818Z,18.71
2023-05-22T18:10:29.535Z,18.72
2023-05-22T18:12:58.143Z,18.73
2023-05-22T18:15:26.689Z,18.76
2023-05-22T18:17:55.318Z,18.79
2023-05-22T18:20:23.934Z,18.79
2023-05-22T18:27:36.469Z,18.43
2023-05-22T18:30:06.406Z,18.42
2023-05-22T18:32:34.995Z,18.38
2023-05-22T18:35:05.016Z,17.25
2023-05-22T18:37:33.819Z,17.65
2023-05-22T18:40:06.484Z,18.05
2023-05-22T18:42:36.768Z,18.12
2023-05-22T18:45:06.130Z,18.11
2023-05-22T18:47:34.840Z,18.12
2023-05-22T18:50:04.234Z,18.12
2023-05-22T18:52:32.749Z,18.06
2023-05-22T18:55:01.761Z,18.05
2023-05-22T18:57:30.343Z,18.06
2023-05-22T19:00:00.417Z,18.03
2023-05-22T19:02:29.094Z,17.45
2023-05-22T19:04:57.852Z,17.84
2023-05-22T19:07:26.503Z,17.78
2023-05-22T19:09:55.066Z,17.76
2023-05-22T19:12:24.743Z,17.70
2023-05-22T19:14:53.751Z,17.68
2023-05-22T19:17:23.699Z,17.70
2023-05-22T19:19:52.270Z,17.67
2023-05-22T19:22:20.897Z,17.64
2023-05-22T19:24:49.457Z,17.65
2023-05-22T19:27:18.967Z,17.03
2023-05-22T19:29:47.581Z,17.58
2023-05-22T19:32:16.235Z,16.44
2023-05-22T19:34:46.584Z,17.42
2023-05-22T19:37:15.251Z,17.32
2023-05-22T19:39:43.827Z,17.24
2023-05-22T19:42:12.498Z,17.12
2023-05-22T19:44:41.677Z,17.02
2023-05-22T19:47:10.254Z,16.90
2023-05-22T19:49:39.195Z,16.84
2023-05-22T19:52:09.202Z,16.80
2023-05-22T19:54:37.766Z,16.72
2023-05-22T19:57:06.581Z,16.75
2023-05-22T19:59:36.873Z,16.62
2023-05-22T20:02:05.927Z,16.23
2023-05-22T20:04:34.580Z,16.50
2023-05-22T20:07:04.373Z,16.42
2023-05-22T20:09:34.639Z,16.39
2023-05-22T20:12:03.147Z,16.39
2023-05-22T20:14:32.960Z,16.22
2023-05-22T20:17:03.751Z,15.57
2023-05-22T20:19:34.682Z,16.42
2023-05-22T20:22:08.429Z,16.11
2023-05-22T20:24:49.081Z,15.95
2023-05-22T20:27:19.684Z,16.16
2023-05-22T20:29:54.354Z,15.34
2023-05-22T20:32:25.295Z,16.26
2023-05-22T20:35:06.148Z,16.08
2023-05-22T20:37:38.433Z,16.48
2023-05-22T20:40:26.658Z,16.49
2023-05-22T20:42:55.450Z,16.20
2023-05-22T20:45:36.505Z,15.34
2023-05-22T20:48:12.314Z,14.86
2023-05-22T20:50:45.137Z,15.66
2023-05-22T20:53:14.038Z,15.87
2023-05-22T20:55:45.454Z,13.69
2023-05-22T20:58:17.584Z,13.87
2023-05-22T21:00:49.651Z,15.65
2023-05-22T21:03:19.585Z,16.11
2023-05-22T21:05:53.996Z,16.09
2023-05-22T21:08:46.954Z,14.37
2023-05-22T21:11:40.875Z,16.00
2023-05-22T21:14:37.492Z,15.96
2023-05-22T21:17:06.443Z,15.51
2023-05-22T21:19:47.989Z,15.89
2023-05-22T21:22:27.254Z,14.97
2023-05-22T21:24:57.999Z,15.34
2023-05-22T21:27:28.272Z,14.26
2023-05-22T21:29:58.013Z,15.71
2023-05-22T21:32:32.261Z,14.38
2023-05-22T21:35:10.537Z,13.89
2023-05-22T21:37:44.277Z,15.66
2023-05-22T21:40:14.772Z,13.87
2023-05-22T21:42:49.410Z,15.59
2023-05-22T21:45:25.072Z,15.31
2023-05-22T21:47:53.917Z,14.63
2023-05-22T21:50:22.657Z,15.42
2023-05-22T21:52:51.360Z,15.19
2023-05-22T21:55:21.017Z,14.20
2023-05-22T21:58:08.333Z,14.35
2023-05-22T22:00:37.439Z,15.19
2023-05-22T22:03:13.415Z,14.24
2023-05-22T22:05:44.243Z,15.18
2023-05-22T22:08:32.951Z,15.10
2023-05-22T22:11:03.822Z,13.74
2023-05-22T22:13:40.973Z,14.98
2023-05-22T22:16:10.842Z,14.96
2023-05-22T22:18:44.308Z,14.41
2023-05-22T22:21:13.169Z,13.57
2023-05-22T22:23:41.963Z,14.52
2023-05-22T22:26:12.344Z,13.62
2023-05-22T22:28:46.570Z,14.48
2023-05-22T22:31:17.612Z,13.62
2023-05-22T22:33:47.830Z,14.18
2023-05-22T22:36:17.470Z,14.69
2023-05-22T22:38:47.268Z,14.74
2023-05-22T22:41:22.096Z,14.90
2023-05-22T22:43:55.658Z,14.65
2023-05-22T22:46:24.373Z,14.42
2023-05-22T22:48:55.619Z,14.95
2023-05-22T22:51:31.018Z,14.77
2023-05-22T22:54:00.734Z,14.94
2023-05-22T22:56:30.634Z,14.96
2023-05-22T22:59:00.878Z,14.96
2023-05-22T23:01:38.393Z,14.96
2023-05-22T23:04:08.381Z,14.95
2023-05-22T23:06:50.392Z,14.86
2023-05-22T23:09:19.178Z,14.76
2023-05-22T23:11:52.666Z,14.96
2023-05-22T23:14:25.019Z,14.99
2023-05-22T23:16:53.931Z,13.73
2023-05-22T23:19:22.628Z,14.51
2023-05-22T23:21:53.931Z,13.51
2023-05-22T23:24:23.824Z,14.80
2023-05-22T23:26:54.274Z,14.49
2023-05-22T23:29:32.656Z,14.82
2023-05-22T23:32:03.507Z,14.61
2023-05-22T23:34:46.601Z,14.80
2023-05-22T23:37:17.495Z,14.97
2023-05-22T23:39:49.280Z,15.07
2023-05-22T23:42:19.253Z,13.84
2023-05-22T23:44:49.386Z,13.66
2023-05-22T23:47:22.982Z,14.49
2023-05-22T23:50:08.213Z,14.92
2023-05-22T23:52:38.136Z,14.45
2023-05-22T23:55:08.048Z,13.19
2023-05-22T23:57:37.847Z,14.78
